MZT weather

General Rafael Buelna International Airport
Mazatlán, Sinaloa, Mexico

Public forecast

Using degrees Celsius for public forecast. Weather courtesy of forecast.io.

Current aviation weather report (METAR) for General Rafael Buelna International Airport

Retrieved 2019/10/19 12:45 UTC (2 hours ago):

MMMZ 191245Z 00000KT 10SM SCT030 BKN080 OVC240 26/26 A2980 RMK 8/477 HZY BINOVC

Aviation forecast (TAF) for General Rafael Buelna International Airport

Retrieved 2019/10/19 12:58 UTC (2 hours ago):

TAF MMMZ 191050Z 1912/2018 00000KT P6SM SCT030 BKN090 OVC240 TX32/1920Z TN26/1912Z FM191800 28008KT P6SM SCT020 SCT090 BKN250 FM200600 33005KT P6SM SCT090 BKN250 BECMG 2011/2013 35005KT